Time;durP1;ratioP1;P1;durP2;ratioP2;P2;SDS_P1;SDS_P2;PMS_P1;PMS_P2;Temp;Humidity;BMP_temperature;BMP_pressure;BME280_temperature;BME280_humidity;BME280_pressure;Samples;Min_cycle;Max_cycle;Signal;HPM_P1;HPM_P2
2024/04/14 00:00:00;;;;;;;1.95;1.23;;;14.30;99.90;;;;;;5377604;26;20052;-61
2024/04/14 00:02:27;;;;;;;4.43;1.50;;;14.30;99.90;;;;;;5378918;26;20154;-61
2024/04/14 00:04:55;;;;;;;1.92;1.40;;;14.20;99.90;;;;;;5375475;26;20351;-61
2024/04/14 00:07:22;;;;;;;3.03;1.50;;;14.20;99.90;;;;;;5374358;26;20358;-61
2024/04/14 00:09:49;;;;;;;6.53;1.77;;;14.10;99.90;;;;;;5367521;26;20016;-61
2024/04/14 00:12:16;;;;;;;2.00;1.35;;;14.10;99.90;;;;;;5365035;26;20004;-61
2024/04/14 00:14:43;;;;;;;5.00;1.35;;;14.00;99.90;;;;;;5382916;26;19996;-61
2024/04/14 00:17:10;;;;;;;3.47;1.38;;;14.00;99.90;;;;;;5374342;26;20617;-61
2024/04/14 00:19:37;;;;;;;1.77;1.30;;;14.00;99.90;;;;;;5375476;26;20001;-59
2024/04/14 00:22:04;;;;;;;4.72;1.48;;;13.90;99.90;;;;;;5368922;26;20107;-61
2024/04/14 00:24:31;;;;;;;4.35;1.55;;;13.90;99.90;;;;;;5372920;26;20004;-61
2024/04/14 00:26:58;;;;;;;2.05;1.20;;;13.90;99.90;;;;;;5369721;26;20014;-61
2024/04/14 00:29:25;;;;;;;3.67;1.33;;;13.90;99.90;;;;;;5372302;26;20321;-59
2024/04/14 00:31:52;;;;;;;1.80;1.20;;;13.90;99.90;;;;;;5373339;26;19996;-60
2024/04/14 00:34:21;;;;;;;4.93;1.48;;;13.90;99.90;;;;;;5368493;26;20008;-61
2024/04/14 00:36:48;;;;;;;4.78;1.50;;;13.80;99.90;;;;;;5367089;26;20016;-59
2024/04/14 00:39:15;;;;;;;3.08;1.48;;;13.80;99.90;;;;;;5379698;26;20081;-61
2024/04/14 00:41:41;;;;;;;2.70;1.58;;;13.80;99.90;;;;;;5345744;26;20047;-61
2024/04/14 00:44:08;;;;;;;2.05;1.45;;;13.70;99.90;;;;;;5370861;26;20048;-61
2024/04/14 00:46:35;;;;;;;4.32;1.52;;;13.70;99.90;;;;;;5375569;26;20000;-61
2024/04/14 00:49:03;;;;;;;2.85;1.50;;;13.70;99.90;;;;;;5365910;26;20077;-62
2024/04/14 00:51:30;;;;;;;1.73;1.38;;;13.60;99.90;;;;;;5374213;26;19996;-62
2024/04/14 00:53:57;;;;;;;2.03;1.38;;;13.60;99.90;;;;;;5380854;26;20017;-60
2024/04/14 00:56:24;;;;;;;3.58;1.65;;;13.60;99.90;;;;;;5377987;26;20086;-61
2024/04/14 00:58:51;;;;;;;4.03;1.63;;;13.60;99.90;;;;;;5382400;26;20019;-61
2024/04/14 01:01:20;;;;;;;2.00;1.60;;;13.50;99.90;;;;;;5377004;26;20442;-61
2024/04/14 01:03:48;;;;;;;3.78;1.45;;;13.50;99.90;;;;;;5374894;26;20016;-61
2024/04/14 01:06:16;;;;;;;5.45;1.67;;;13.50;99.90;;;;;;5375146;26;20004;-61
2024/04/14 01:08:44;;;;;;;4.25;1.50;;;13.50;99.90;;;;;;5381642;26;20015;-61
2024/04/14 01:11:11;;;;;;;3.63;1.55;;;13.60;99.90;;;;;;5379800;26;19996;-61
2024/04/14 01:13:38;;;;;;;3.13;1.33;;;13.60;99.90;;;;;;5369061;26;20012;-61
2024/04/14 01:16:05;;;;;;;2.40;1.33;;;13.80;99.90;;;;;;5370876;26;20004;-61
2024/04/14 01:18:32;;;;;;;1.42;1.15;;;13.90;99.90;;;;;;5374897;26;20078;-61
2024/04/14 01:20:59;;;;;;;2.20;1.10;;;14.40;99.90;;;;;;5381739;26;20008;-61
2024/04/14 01:23:27;;;;;;;2.55;1.42;;;15.00;99.90;;;;;;5374609;26;20059;-61
2024/04/14 01:25:55;;;;;;;2.88;1.27;;;15.50;99.90;;;;;;5372962;26;20219;-61
2024/04/14 01:28:23;;;;;;;2.47;1.25;;;15.90;99.90;;;;;;5378999;26;20529;-61
2024/04/14 01:30:49;;;;;;;3.08;1.15;;;16.20;99.90;;;;;;5382383;26;20081;-61
2024/04/14 01:33:17;;;;;;;2.97;1.25;;;16.20;99.90;;;;;;5380529;26;20065;-61
2024/04/14 01:35:43;;;;;;;2.67;1.42;;;16.20;99.90;;;;;;5378273;26;20703;-61
2024/04/14 01:38:10;;;;;;;2.05;1.30;;;16.20;99.90;;;;;;5378297;26;20007;-60
2024/04/14 01:40:50;;;;;;;2.95;1.50;;;16.40;99.90;;;;;;5373165;26;20012;-60
2024/04/14 01:43:17;;;;;;;3.42;1.30;;;16.30;99.90;;;;;;5375127;26;20008;-61
2024/04/14 01:45:45;;;;;;;2.50;1.42;;;16.20;99.90;;;;;;5375024;26;20229;-60
2024/04/14 01:48:12;;;;;;;5.45;1.50;;;16.30;99.90;;;;;;5373516;26;20074;-61
2024/04/14 01:50:39;;;;;;;1.40;1.27;;;16.20;99.90;;;;;;5374182;26;20833;-61
2024/04/14 01:53:06;;;;;;;1.63;0.98;;;16.30;99.90;;;;;;5373506;26;20004;-61
2024/04/14 01:55:33;;;;;;;1.60;1.05;;;16.30;99.90;;;;;;5374503;26;20001;-61
2024/04/14 01:58:00;;;;;;;2.15;1.30;;;16.30;99.90;;;;;;5379285;26;20009;-61
2024/04/14 02:00:27;;;;;;;1.67;1.20;;;16.20;99.90;;;;;;5380613;26;20008;-61
2024/04/14 02:02:55;;;;;;;2.55;1.00;;;16.40;99.90;;;;;;5381310;26;20015;-61
2024/04/14 02:05:23;;;;;;;1.45;1.10;;;16.50;99.90;;;;;;5381503;26;20008;-61
2024/04/14 02:07:50;;;;;;;3.63;1.40;;;16.80;99.90;;;;;;5375922;26;20007;-62
2024/04/14 02:10:16;;;;;;;2.63;1.20;;;16.80;99.90;;;;;;5376502;26;20016;-60
2024/04/14 02:12:43;;;;;;;2.78;1.90;;;16.80;99.90;;;;;;5380209;26;20022;-62
2024/04/14 02:15:10;;;;;;;1.63;1.10;;;16.90;99.90;;;;;;5379851;26;20004;-62
2024/04/14 02:17:37;;;;;;;1.10;1.00;;;17.10;99.90;;;;;;5374630;26;20008;-61
2024/04/14 02:20:05;;;;;;;3.80;0.90;;;17.10;99.90;;;;;;5373949;26;20036;-62
2024/04/14 02:22:32;;;;;;;1.25;0.90;;;17.10;99.90;;;;;;5366453;26;20012;-62
2024/04/14 02:24:58;;;;;;;1.58;1.00;;;17.10;99.90;;;;;;5343231;26;20004;-62
2024/04/14 02:27:25;;;;;;;3.13;1.05;;;17.00;99.90;;;;;;5376266;26;20444;-62
2024/04/14 02:29:52;;;;;;;2.22;1.00;;;16.90;99.90;;;;;;5371091;26;20016;-62
2024/04/14 02:32:19;;;;;;;2.00;0.93;;;16.80;99.90;;;;;;5377108;26;20436;-62
2024/04/14 02:34:47;;;;;;;2.83;1.10;;;16.70;99.90;;;;;;5373638;26;20070;-62
2024/04/14 02:37:13;;;;;;;2.92;1.00;;;16.70;99.90;;;;;;5368766;26;20020;-62
2024/04/14 02:39:40;;;;;;;5.20;1.23;;;16.70;99.90;;;;;;5377178;26;20004;-62
2024/04/14 02:42:07;;;;;;;3.95;1.42;;;16.70;99.90;;;;;;5378576;26;20012;-62
2024/04/14 02:44:34;;;;;;;3.05;0.85;;;16.70;99.90;;;;;;5382153;26;19996;-62
2024/04/14 02:47:01;;;;;;;2.40;1.58;;;16.60;99.90;;;;;;5375601;26;20000;-62
2024/04/14 02:49:28;;;;;;;3.15;1.02;;;16.50;99.90;;;;;;5381390;26;20015;-62
2024/04/14 02:51:56;;;;;;;2.08;0.90;;;16.50;99.90;;;;;;5385353;26;20463;-62
2024/04/14 02:54:23;;;;;;;2.83;1.00;;;16.40;99.90;;;;;;5346342;26;20043;-62
2024/04/14 02:56:50;;;;;;;2.50;0.95;;;16.40;99.90;;;;;;5387877;26;19999;-61
2024/04/14 02:59:17;;;;;;;2.13;1.10;;;16.40;99.90;;;;;;5376065;26;20015;-62
2024/04/14 03:01:46;;;;;;;2.20;1.25;;;16.60;99.90;;;;;;5370317;26;20015;-62
2024/04/14 03:04:13;;;;;;;2.97;1.30;;;16.70;99.90;;;;;;5375539;26;20013;-62
2024/04/14 03:06:40;;;;;;;3.22;1.20;;;16.90;99.90;;;;;;5378936;26;20004;-62
2024/04/14 03:09:07;;;;;;;4.60;1.10;;;16.90;99.90;;;;;;5374521;26;20019;-62
2024/04/14 03:11:34;;;;;;;3.13;1.40;;;16.90;99.90;;;;;;5366622;26;20333;-62
2024/04/14 03:14:01;;;;;;;3.85;1.35;;;16.90;99.90;;;;;;5372689;26;19997;-62
2024/04/14 03:16:28;;;;;;;2.65;1.20;;;16.90;99.90;;;;;;5375043;26;20001;-62
2024/04/14 03:18:55;;;;;;;2.15;1.27;;;16.90;99.90;;;;;;5372478;26;19995;-62
2024/04/14 03:21:22;;;;;;;1.38;0.98;;;16.80;99.90;;;;;;5373476;26;20009;-62
2024/04/14 03:23:50;;;;;;;3.50;1.25;;;16.60;99.90;;;;;;5369542;26;20000;-62
2024/04/14 03:26:17;;;;;;;1.55;1.10;;;16.50;99.90;;;;;;5372017;26;20086;-62
2024/04/14 03:28:44;;;;;;;3.65;1.25;;;16.40;99.90;;;;;;5373929;26;20000;-62
2024/04/14 03:31:11;;;;;;;2.10;1.20;;;16.20;99.90;;;;;;5381176;26;20047;-62
2024/04/14 03:33:38;;;;;;;2.55;1.23;;;16.30;99.90;;;;;;5373829;26;20075;-62
2024/04/14 03:36:06;;;;;;;1.42;0.93;;;16.20;99.90;;;;;;5371415;26;20342;-61
2024/04/14 03:38:34;;;;;;;2.30;1.20;;;16.20;99.90;;;;;;5370052;26;20015;-62
2024/04/14 03:41:01;;;;;;;1.60;1.13;;;16.10;99.90;;;;;;5370474;26;20016;-62
2024/04/14 03:43:29;;;;;;;3.33;1.13;;;16.10;99.90;;;;;;5369840;26;20079;-61
2024/04/14 03:45:55;;;;;;;1.30;1.15;;;16.10;99.90;;;;;;5375090;26;20081;-62
2024/04/14 03:48:23;;;;;;;1.63;1.00;;;16.10;99.90;;;;;;5369379;26;20005;-62
2024/04/14 03:50:50;;;;;;;1.42;1.20;;;16.10;99.90;;;;;;5343399;26;20086;-61
2024/04/14 03:53:17;;;;;;;1.17;0.93;;;16.20;99.90;;;;;;5371146;26;20023;-62
2024/04/14 03:55:44;;;;;;;1.48;1.10;;;16.20;99.90;;;;;;5372491;26;20011;-62
2024/04/14 03:58:11;;;;;;;1.75;1.10;;;16.10;99.90;;;;;;5371473;26;20001;-62
2024/04/14 04:00:37;;;;;;;3.20;1.10;;;16.20;99.90;;;;;;5374521;26;20344;-62
2024/04/14 04:03:04;;;;;;;2.75;1.10;;;16.20;99.90;;;;;;5372749;26;20016;-61
2024/04/14 04:05:31;;;;;;;0.88;0.82;;;16.10;99.90;;;;;;5377924;26;19996;-62
2024/04/14 04:07:58;;;;;;;4.55;2.15;;;16.20;99.90;;;;;;5375344;26;20014;-62
2024/04/14 04:10:25;;;;;;;1.90;0.90;;;16.20;99.90;;;;;;5373671;26;20007;-61
2024/04/14 04:12:52;;;;;;;2.70;1.30;;;16.30;99.90;;;;;;5377068;26;20007;-62
2024/04/14 04:15:19;;;;;;;1.75;0.95;;;16.30;99.90;;;;;;5378107;26;20015;-62
2024/04/14 04:17:46;;;;;;;1.67;1.05;;;16.30;99.90;;;;;;5378945;26;20012;-61
2024/04/14 04:20:13;;;;;;;3.60;1.02;;;16.50;99.90;;;;;;5374895;26;20004;-61
2024/04/14 04:22:40;;;;;;;1.00;0.88;;;16.40;99.90;;;;;;5369150;26;20403;-61
2024/04/14 04:25:06;;;;;;;2.08;1.00;;;16.50;99.90;;;;;;5372808;26;20001;-62
2024/04/14 04:27:33;;;;;;;2.78;1.20;;;16.50;99.90;;;;;;5349330;26;20011;-62
2024/04/14 04:30:00;;;;;;;1.65;1.13;;;16.50;99.90;;;;;;5374660;26;20526;-60
2024/04/14 04:32:27;;;;;;;3.35;0.93;;;16.40;99.90;;;;;;5373923;26;20031;-62
2024/04/14 04:34:54;;;;;;;1.58;0.90;;;16.40;99.90;;;;;;5378465;26;20003;-61
2024/04/14 04:37:21;;;;;;;2.88;1.08;;;16.50;99.90;;;;;;5373016;26;20085;-62
2024/04/14 04:39:48;;;;;;;1.48;0.98;;;16.50;99.90;;;;;;5379381;26;20028;-62
2024/04/14 04:42:15;;;;;;;3.00;1.10;;;16.50;99.90;;;;;;5373293;26;20018;-62
2024/04/14 04:44:42;;;;;;;2.58;1.65;;;16.50;99.90;;;;;;5370908;26;19996;-62
2024/04/14 04:47:09;;;;;;;2.05;1.00;;;16.50;99.90;;;;;;5342716;26;20020;-62
2024/04/14 04:49:36;;;;;;;1.98;0.98;;;16.50;99.90;;;;;;5343825;26;20048;-62
2024/04/14 04:52:03;;;;;;;4.47;1.08;;;16.40;99.90;;;;;;5379739;26;20472;-62
2024/04/14 04:54:30;;;;;;;1.15;0.90;;;16.50;99.90;;;;;;5378237;26;20000;-61
2024/04/14 04:56:57;;;;;;;2.63;1.02;;;16.50;99.90;;;;;;5368634;26;20004;-62
2024/04/14 04:59:24;;;;;;;4.28;1.30;;;16.50;99.90;;;;;;5371512;26;20011;-62
2024/04/14 05:01:51;;;;;;;2.88;1.40;;;16.60;99.90;;;;;;5367100;26;20015;-62
2024/04/14 05:04:17;;;;;;;1.38;0.82;;;16.60;99.90;;;;;;5375042;26;20055;-62
2024/04/14 05:06:44;;;;;;;2.15;1.02;;;16.70;99.90;;;;;;5372392;26;20014;-62
2024/04/14 05:09:11;;;;;;;3.35;1.00;;;16.60;99.90;;;;;;5379574;26;20011;-62
2024/04/14 05:11:38;;;;;;;2.72;0.95;;;16.50;99.90;;;;;;5369688;26;20010;-62
2024/04/14 05:14:05;;;;;;;3.58;1.00;;;16.50;99.90;;;;;;5373217;26;20000;-62
2024/04/14 05:16:31;;;;;;;3.13;1.02;;;16.50;99.90;;;;;;5344735;26;20004;-61
2024/04/14 05:18:59;;;;;;;2.33;1.17;;;16.60;99.90;;;;;;5381665;26;20522;-62
2024/04/14 05:21:26;;;;;;;2.42;1.08;;;16.70;99.90;;;;;;5378898;26;20008;-62
2024/04/14 05:23:53;;;;;;;1.83;1.23;;;16.70;99.90;;;;;;5374550;26;20348;-61
2024/04/14 05:26:20;;;;;;;2.47;1.20;;;16.70;99.90;;;;;;5375429;26;20020;-61
2024/04/14 05:28:47;;;;;;;1.92;1.10;;;16.80;99.90;;;;;;5378197;26;20007;-61
2024/04/14 05:31:14;;;;;;;5.47;1.20;;;16.80;99.90;;;;;;5375195;26;20362;-61
2024/04/14 05:33:41;;;;;;;5.07;1.30;;;16.90;99.90;;;;;;5376878;26;19996;-62
2024/04/14 05:36:08;;;;;;;4.57;1.23;;;17.00;99.90;;;;;;5370936;26;20012;-62
2024/04/14 05:38:35;;;;;;;3.40;1.05;;;17.10;99.90;;;;;;5374977;26;19996;-61
2024/04/14 05:41:02;;;;;;;1.98;1.00;;;17.20;99.90;;;;;;5372897;26;20051;-62
2024/04/14 05:43:29;;;;;;;1.50;1.17;;;17.20;99.90;;;;;;5375127;26;20009;-61
2024/04/14 05:45:56;;;;;;;3.47;1.30;;;17.30;99.90;;;;;;5373414;26;20000;-60
2024/04/14 05:48:23;;;;;;;4.00;1.10;;;17.30;99.90;;;;;;5370908;26;20001;-62
2024/04/14 05:50:50;;;;;;;2.95;1.40;;;17.30;99.90;;;;;;5370955;26;20055;-62
2024/04/14 05:53:17;;;;;;;3.10;1.50;;;17.40;99.90;;;;;;5371969;26;20004;-61
2024/04/14 05:55:44;;;;;;;1.65;1.00;;;17.60;99.90;;;;;;5373738;26;20001;-62
2024/04/14 05:58:11;;;;;;;3.45;1.60;;;17.70;99.90;;;;;;5363466;26;20011;-62
2024/04/14 06:00:38;;;;;;;6.22;1.55;;;17.70;99.90;;;;;;5369143;26;20004;-62
2024/04/14 06:03:06;;;;;;;1.48;1.20;;;17.80;99.90;;;;;;5365101;26;20061;-64
2024/04/14 06:05:33;;;;;;;2.08;1.33;;;17.80;99.90;;;;;;5369529;26;19996;-62
2024/04/14 06:07:59;;;;;;;2.42;1.10;;;17.90;99.90;;;;;;5367139;26;20344;-61
2024/04/14 06:10:27;;;;;;;2.72;1.30;;;17.90;99.90;;;;;;5369800;26;20015;-62
2024/04/14 06:12:53;;;;;;;3.55;1.17;;;17.90;99.90;;;;;;5372464;26;20000;-62
2024/04/14 06:15:20;;;;;;;4.38;1.30;;;17.90;99.90;;;;;;5373155;26;20023;-61
2024/04/14 06:17:47;;;;;;;2.22;1.10;;;17.90;99.90;;;;;;5369636;26;19996;-61
2024/04/14 06:20:14;;;;;;;3.65;1.23;;;17.90;99.90;;;;;;5371789;26;20008;-59
2024/04/14 06:22:41;;;;;;;2.85;1.27;;;18.00;99.90;;;;;;5336766;26;20026;-61
2024/04/14 06:25:08;;;;;;;1.10;0.85;;;18.10;99.90;;;;;;5372251;26;20006;-62
2024/04/14 06:27:35;;;;;;;3.03;1.50;;;18.10;99.90;;;;;;5368441;26;20016;-62
2024/04/14 06:30:02;;;;;;;2.42;1.10;;;18.20;99.90;;;;;;5365963;26;20031;-61
2024/04/14 06:32:28;;;;;;;8.38;2.25;;;18.20;99.90;;;;;;5371916;26;20051;-61
2024/04/14 06:34:55;;;;;;;3.78;1.40;;;18.20;99.90;;;;;;5369229;26;20036;-61
2024/04/14 06:37:22;;;;;;;5.30;1.30;;;18.20;99.90;;;;;;5367805;26;20344;-60
2024/04/14 06:39:49;;;;;;;3.50;1.10;;;18.30;99.90;;;;;;5369046;26;20073;-61
2024/04/14 06:42:16;;;;;;;2.53;1.02;;;18.40;99.90;;;;;;5379070;26;20004;-60
2024/04/14 06:44:43;;;;;;;3.03;1.35;;;18.40;99.90;;;;;;5371885;26;20000;-61
2024/04/14 06:47:10;;;;;;;2.92;1.20;;;18.50;99.90;;;;;;5375168;26;20009;-60
2024/04/14 06:49:37;;;;;;;1.63;0.80;;;18.50;99.90;;;;;;5377715;26;20004;-60
2024/04/14 06:52:05;;;;;;;1.88;1.10;;;18.60;99.90;;;;;;5377063;26;20513;-60
2024/04/14 06:54:32;;;;;;;2.17;1.17;;;18.70;99.90;;;;;;5377051;26;20015;-61
2024/04/14 06:56:58;;;;;;;2.08;1.27;;;18.70;99.90;;;;;;5375850;26;20081;-61
2024/04/14 06:59:25;;;;;;;2.38;1.25;;;18.80;99.90;;;;;;5377354;26;20000;-60
2024/04/14 07:01:52;;;;;;;2.58;1.15;;;18.80;99.90;;;;;;5382298;26;20015;-61
2024/04/14 07:04:19;;;;;;;2.53;1.20;;;18.90;99.90;;;;;;5373745;26;20019;-60
2024/04/14 07:06:46;;;;;;;3.53;1.40;;;18.90;99.90;;;;;;5374737;26;20028;-60
2024/04/14 07:09:13;;;;;;;2.80;0.93;;;18.90;99.90;;;;;;5366002;26;20008;-60
2024/04/14 07:11:40;;;;;;;3.28;1.20;;;19.00;99.90;;;;;;5372232;26;19996;-62
2024/04/14 07:14:07;;;;;;;2.45;1.10;;;19.10;99.90;;;;;;5381915;26;20012;-62
2024/04/14 07:16:34;;;;;;;3.70;1.20;;;19.20;99.90;;;;;;5377456;26;20356;-62
2024/04/14 07:19:01;;;;;;;2.15;1.15;;;19.30;99.90;;;;;;5383446;26;20003;-62
2024/04/14 07:21:27;;;;;;;1.80;1.00;;;19.20;99.90;;;;;;5377281;26;20357;-62
2024/04/14 07:23:54;;;;;;;2.35;1.00;;;19.30;99.90;;;;;;5379225;26;20364;-62
2024/04/14 07:26:22;;;;;;;3.63;1.10;;;19.20;99.90;;;;;;5374170;26;20004;-62
2024/04/14 07:28:49;;;;;;;1.58;1.23;;;19.30;99.90;;;;;;5377628;26;20101;-62
2024/04/14 07:31:16;;;;;;;4.13;1.63;;;19.30;99.90;;;;;;5376627;26;20081;-62
2024/04/14 07:33:43;;;;;;;1.55;1.17;;;19.40;99.90;;;;;;5378589;26;20081;-62
2024/04/14 07:36:10;;;;;;;2.60;0.95;;;19.50;99.90;;;;;;5374420;26;20346;-62
2024/04/14 07:38:37;;;;;;;2.05;1.15;;;19.50;99.90;;;;;;5377830;26;20019;-61
2024/04/14 07:41:04;;;;;;;3.15;1.25;;;19.60;99.90;;;;;;5373992;26;20446;-61
2024/04/14 07:43:30;;;;;;;1.70;1.00;;;19.60;99.90;;;;;;5376720;26;20012;-61
2024/04/14 07:45:57;;;;;;;1.50;1.08;;;19.60;99.90;;;;;;5374019;26;20015;-61
2024/04/14 07:48:24;;;;;;;2.92;1.20;;;19.60;99.90;;;;;;5378589;26;21636;-61
2024/04/14 07:50:51;;;;;;;1.55;1.08;;;19.60;99.90;;;;;;5379706;26;20028;-61
2024/04/14 07:53:18;;;;;;;4.13;1.30;;;19.70;99.90;;;;;;5375940;26;20004;-61
2024/04/14 07:55:45;;;;;;;5.05;1.30;;;19.80;99.90;;;;;;5372506;26;20709;-61
2024/04/14 07:58:11;;;;;;;4.53;1.23;;;19.90;99.90;;;;;;5375614;26;20051;-61
2024/04/14 08:00:38;;;;;;;1.40;1.30;;;19.90;99.90;;;;;;5375708;26;20001;-61
2024/04/14 08:03:05;;;;;;;2.38;1.13;;;19.90;99.90;;;;;;5377572;26;20068;-61
2024/04/14 08:05:32;;;;;;;1.67;1.00;;;20.10;99.90;;;;;;5378583;26;20019;-61
2024/04/14 08:08:03;;;;;;;1.70;1.17;;;20.10;99.90;;;;;;5375748;26;20012;-61
2024/04/14 08:10:30;;;;;;;2.53;1.30;;;20.20;99.90;;;;;;5370369;26;20012;-61
2024/04/14 08:12:57;;;;;;;2.92;1.20;;;20.30;99.90;;;;;;5367817;26;20008;-61
2024/04/14 08:15:24;;;;;;;3.22;1.00;;;20.40;99.90;;;;;;5367605;26;20011;-61
2024/04/14 08:17:50;;;;;;;3.80;1.35;;;20.40;99.90;;;;;;5380221;26;20023;-61
2024/04/14 08:20:17;;;;;;;2.40;1.38;;;20.50;99.90;;;;;;5380362;26;20011;-60
2024/04/14 08:22:44;;;;;;;3.90;1.25;;;20.60;99.90;;;;;;5379683;26;20330;-61
2024/04/14 08:25:11;;;;;;;4.93;1.52;;;20.70;99.90;;;;;;5380908;26;20011;-61
2024/04/14 08:27:38;;;;;;;1.98;1.20;;;20.70;99.90;;;;;;5380030;26;20457;-61
2024/04/14 08:30:05;;;;;;;1.45;1.30;;;20.80;99.90;;;;;;5378357;26;20015;-62
2024/04/14 08:32:32;;;;;;;2.90;1.60;;;20.90;99.90;;;;;;5377207;26;20554;-62
2024/04/14 08:34:59;;;;;;;2.85;0.90;;;21.00;99.90;;;;;;5378126;26;20000;-62
2024/04/14 08:37:26;;;;;;;1.05;0.93;;;21.00;99.90;;;;;;5369407;26;20362;-62
2024/04/14 08:39:53;;;;;;;7.18;1.60;;;21.20;99.90;;;;;;5372873;26;19997;-62
2024/04/14 08:42:21;;;;;;;6.72;1.40;;;21.30;99.90;;;;;;5377917;26;20000;-61
2024/04/14 08:44:49;;;;;;;2.20;1.48;;;21.40;99.90;;;;;;5377078;26;20781;-60
2024/04/14 08:47:17;;;;;;;3.75;1.30;;;21.40;99.90;;;;;;5378851;26;20016;-62
2024/04/14 08:49:46;;;;;;;3.72;1.00;;;21.50;99.90;;;;;;5387155;26;19996;-61
2024/04/14 08:52:15;;;;;;;3.53;1.00;;;21.50;99.90;;;;;;5380852;26;20015;-61
2024/04/14 08:54:42;;;;;;;4.55;1.55;;;21.60;99.90;;;;;;5349716;26;20015;-62
2024/04/14 08:57:13;;;;;;;2.63;0.90;;;21.60;99.90;;;;;;5380215;26;20004;-61
2024/04/14 08:59:44;;;;;;;3.25;1.20;;;21.60;99.90;;;;;;5375378;26;20721;-61
2024/04/14 09:02:11;;;;;;;2.33;1.25;;;21.60;99.90;;;;;;5376449;26;19996;-61
2024/04/14 09:04:39;;;;;;;1.85;1.40;;;21.60;99.90;;;;;;5376053;26;20326;-62
2024/04/14 09:07:07;;;;;;;5.57;2.50;;;21.70;99.90;;;;;;5372563;26;20001;-60
2024/04/14 09:09:34;;;;;;;1.80;1.17;;;21.80;99.90;;;;;;5376562;26;20008;-61
2024/04/14 09:12:00;;;;;;;2.17;1.20;;;21.80;99.90;;;;;;5380527;26;20015;-61
2024/04/14 09:14:27;;;;;;;4.20;1.00;;;21.90;99.90;;;;;;5374019;26;20496;-60
2024/04/14 09:16:54;;;;;;;2.22;1.17;;;22.00;99.90;;;;;;5377026;26;19996;-62
2024/04/14 09:19:21;;;;;;;4.03;1.15;;;22.00;99.90;;;;;;5379652;26;20008;-60
2024/04/14 09:21:49;;;;;;;2.28;1.30;;;22.00;99.90;;;;;;5376061;26;20481;-61
2024/04/14 09:24:16;;;;;;;3.05;1.10;;;22.10;99.90;;;;;;5368024;26;20383;-60
2024/04/14 09:26:44;;;;;;;2.17;0.95;;;22.10;99.90;;;;;;5377166;26;20008;-62
2024/04/14 09:29:12;;;;;;;2.53;1.73;;;22.20;99.90;;;;;;5374524;26;20328;-62
2024/04/14 09:31:40;;;;;;;2.35;1.17;;;22.20;99.90;;;;;;5368590;26;20519;-62
2024/04/14 09:34:07;;;;;;;6.63;1.23;;;22.20;99.90;;;;;;5374806;26;20449;-62
2024/04/14 09:36:36;;;;;;;6.32;1.25;;;22.20;99.90;;;;;;5373618;26;20012;-61
2024/04/14 09:39:05;;;;;;;2.90;1.00;;;22.20;99.90;;;;;;5378742;26;20086;-61
2024/04/14 09:41:35;;;;;;;2.90;1.30;;;22.40;99.90;;;;;;5375754;26;19996;-61
2024/04/14 09:44:02;;;;;;;1.30;0.90;;;22.40;99.90;;;;;;5371097;26;20016;-61
2024/04/14 09:46:32;;;;;;;2.03;1.05;;;22.50;99.90;;;;;;5376205;26;20012;-62
2024/04/14 09:49:00;;;;;;;2.03;1.30;;;22.60;99.90;;;;;;5376278;26;20001;-61
2024/04/14 09:51:29;;;;;;;3.13;1.20;;;22.80;99.90;;;;;;5376347;26;20287;-62
2024/04/14 09:53:58;;;;;;;1.48;0.95;;;23.00;99.90;;;;;;5374175;26;20012;-61
2024/04/14 09:56:25;;;;;;;4.75;1.27;;;23.10;99.90;;;;;;5371990;26;20008;-62
2024/04/14 09:58:54;;;;;;;3.20;1.05;;;23.20;99.90;;;;;;5377177;26;20005;-61
2024/04/14 10:01:27;;;;;;;1.30;1.13;;;23.30;99.90;;;;;;5375717;26;20043;-62
2024/04/14 10:03:58;;;;;;;1.00;0.90;;;23.40;99.90;;;;;;5375459;26;20015;-61
2024/04/14 10:06:26;;;;;;;1.45;1.13;;;23.50;99.90;;;;;;5381627;26;20465;-61
2024/04/14 10:08:54;;;;;;;3.63;1.30;;;23.50;99.90;;;;;;5341091;26;20004;-62
2024/04/14 10:11:22;;;;;;;1.67;1.38;;;23.60;99.90;;;;;;5374777;26;20079;-64
2024/04/14 10:13:55;;;;;;;2.38;1.13;;;23.50;99.90;;;;;;5376764;26;19997;-62
2024/04/14 10:16:24;;;;;;;4.63;1.40;;;23.50;99.90;;;;;;5371622;26;20016;-61
2024/04/14 10:18:51;;;;;;;1.67;1.20;;;23.50;99.90;;;;;;5365227;26;20039;-62
2024/04/14 10:21:21;;;;;;;2.15;0.95;;;23.40;99.90;;;;;;5370115;26;20250;-62
2024/04/14 10:23:49;;;;;;;;;;;23.40;99.90;;;;;;5373870;26;20015;-62
2024/04/14 10:26:17;;;;;;;3.60;1.00;;;23.40;99.90;;;;;;5374182;26;19980;-62
2024/04/14 10:28:49;;;;;;;2.50;1.10;;;23.50;99.90;;;;;;5373597;26;20012;-61
2024/04/14 10:31:30;;;;;;;1.67;0.95;;;23.50;99.90;;;;;;5370725;26;20018;-61
2024/04/14 10:34:01;;;;;;;2.67;1.02;;;23.50;99.90;;;;;;5374496;26;19996;-62
2024/04/14 10:36:28;;;;;;;1.92;0.90;;;23.60;99.90;;;;;;5374729;26;20712;-62
2024/04/14 10:38:56;;;;;;;1.42;0.90;;;23.60;99.90;;;;;;5372498;26;20000;-60
2024/04/14 10:41:23;;;;;;;3.05;1.00;;;23.70;99.90;;;;;;5373871;26;20781;-62
2024/04/14 10:43:50;;;;;;;4.20;1.30;;;23.90;99.90;;;;;;5376093;26;20456;-63
2024/04/14 10:46:17;;;;;;;2.28;1.20;;;24.00;99.90;;;;;;5375044;26;20008;-62
2024/04/14 10:48:45;;;;;;;1.73;0.98;;;24.10;99.90;;;;;;5375793;26;20042;-62
2024/04/14 10:51:13;;;;;;;2.30;1.00;;;24.20;99.90;;;;;;5374525;26;20074;-62
2024/04/14 10:53:40;;;;;;;1.70;1.10;;;24.30;99.90;;;;;;5374051;26;19996;-62
2024/04/14 10:56:07;;;;;;;3.85;1.08;;;24.40;99.90;;;;;;5372540;26;20015;-62
2024/04/14 10:58:36;;;;;;;2.75;1.10;;;24.50;99.90;;;;;;5373759;26;20015;-62
2024/04/14 11:01:03;;;;;;;3.55;1.00;;;24.60;99.90;;;;;;5373227;26;20004;-63
2024/04/14 11:03:32;;;;;;;4.32;0.95;;;24.60;99.90;;;;;;5374875;26;20000;-63
2024/04/14 11:06:00;;;;;;;1.63;1.00;;;24.70;99.90;;;;;;5375370;26;20348;-64
2024/04/14 11:08:27;;;;;;;3.15;0.90;;;24.70;99.90;;;;;;5373521;26;19996;-64
2024/04/14 11:10:54;;;;;;;2.45;1.00;;;24.70;99.90;;;;;;5374377;26;20000;-64
2024/04/14 11:13:27;;;;;;;1.77;1.00;;;24.70;99.90;;;;;;5375570;26;20469;-64
2024/04/14 11:15:59;;;;;;;2.28;1.17;;;24.70;99.90;;;;;;5374971;26;20725;-63
2024/04/14 11:18:30;;;;;;;1.80;0.98;;;24.70;99.90;;;;;;5376297;26;20345;-63
2024/04/14 11:20:57;;;;;;;1.80;1.00;;;24.90;99.90;;;;;;5372936;26;20332;-63
2024/04/14 11:23:26;;;;;;;3.22;1.20;;;24.90;99.90;;;;;;5375456;26;20004;-64
2024/04/14 11:25:54;;;;;;;1.60;1.10;;;24.90;99.90;;;;;;5373147;26;20004;-63
2024/04/14 11:28:21;;;;;;;2.15;1.10;;;24.90;99.90;;;;;;5375212;26;20081;-62
2024/04/14 11:30:49;;;;;;;2.10;1.33;;;24.90;99.90;;;;;;5371414;26;19996;-62
2024/04/14 11:33:21;;;;;;;4.35;1.48;;;24.90;99.90;;;;;;5369213;26;20016;-62
2024/04/14 11:35:58;;;;;;;4.25;1.38;;;24.80;99.90;;;;;;5367215;26;20018;-62
2024/04/14 11:38:25;;;;;;;4.03;1.67;;;24.70;99.90;;;;;;5372522;26;20012;-62
2024/04/14 11:40:54;;;;;;;7.03;1.27;;;24.70;99.90;;;;;;5378263;26;20019;-62
2024/04/14 11:43:20;;;;;;;2.35;1.13;;;24.80;99.90;;;;;;5379140;26;20771;-62
2024/04/14 11:45:49;;;;;;;3.70;1.17;;;24.70;99.90;;;;;;5371209;26;20515;-62
2024/04/14 11:48:17;;;;;;;1.85;1.00;;;24.70;99.90;;;;;;5375724;26;20391;-62
2024/04/14 11:50:44;;;;;;;5.90;0.90;;;24.70;99.90;;;;;;5371401;26;20484;-62
2024/04/14 11:53:11;;;;;;;2.22;0.90;;;24.70;99.90;;;;;;5373759;26;20018;-62
2024/04/14 11:55:37;;;;;;;1.85;1.20;;;24.50;99.90;;;;;;5374692;26;20011;-62
2024/04/14 11:58:04;;;;;;;2.35;1.30;;;24.40;99.90;;;;;;5373889;26;20001;-62
2024/04/14 12:00:32;;;;;;;1.50;1.15;;;24.20;99.90;;;;;;5374666;26;20015;-62
2024/04/14 12:02:59;;;;;;;4.45;1.20;;;24.20;99.90;;;;;;5374143;26;20015;-62
2024/04/14 12:05:26;;;;;;;4.22;1.00;;;24.10;99.90;;;;;;5373790;26;20086;-62
2024/04/14 12:07:53;;;;;;;4.57;2.97;;;24.10;99.90;;;;;;5371891;26;20177;-62
2024/04/14 12:10:20;;;;;;;10.55;7.10;;;24.00;99.90;;;;;;5374051;26;20782;-61
2024/04/14 12:12:47;;;;;;;20.35;16.73;;;24.00;99.90;;;;;;5402580;21;20008;-59
2024/04/14 12:15:14;;;;;;;4.38;1.70;;;24.00;99.90;;;;;;5393667;26;20011;-59
2024/04/14 12:17:41;;;;;;;5.35;3.05;;;24.00;99.90;;;;;;5394118;26;20049;-59
2024/04/14 12:20:08;;;;;;;13.93;9.50;;;24.10;99.90;;;;;;5407591;26;20012;-59
2024/04/14 12:22:36;;;;;;;4.07;1.38;;;24.10;99.90;;;;;;5397294;26;19999;-60
2024/04/14 12:25:04;;;;;;;2.92;2.05;;;24.20;99.90;;;;;;5390238;26;20015;-60
2024/04/14 12:27:34;;;;;;;7.35;2.45;;;24.20;99.90;;;;;;5403838;26;20036;-60
2024/04/14 12:30:01;;;;;;;7.10;1.88;;;24.40;99.90;;;;;;5392472;26;20000;-60
2024/04/14 12:32:28;;;;;;;2.97;1.80;;;24.50;99.90;;;;;;5396876;26;20015;-60
2024/04/14 12:34:55;;;;;;;4.13;1.10;;;24.50;99.90;;;;;;5388920;26;20035;-60
2024/04/14 12:37:22;;;;;;;6.00;1.48;;;24.50;99.90;;;;;;5397179;26;20328;-60
2024/04/14 12:39:51;;;;;;;3.30;2.00;;;24.60;99.90;;;;;;5381026;26;20000;-60
2024/04/14 12:42:18;;;;;;;2.53;1.15;;;24.50;99.90;;;;;;5394712;26;20039;-60
2024/04/14 12:44:45;;;;;;;3.17;1.17;;;24.60;99.90;;;;;;5359057;26;20348;-60
2024/04/14 12:47:12;;;;;;;2.10;1.20;;;24.50;99.90;;;;;;5392283;26;19995;-58